Airfield :
LOGIN :

Register | Disclaimer

   EN    FR    IT 

 










Legend :    VFR   Marginal VFR   IFR   Intensive IFR   Very Intensive IFR
Visi :
Ceiling :
>= 8 km
>= 3000ft
5 to 8 km
1000 to 3000 ft
1500m to 5 km
500 to 1000 ft
800 to 1500m
200 to 500 ft
< 800m
< 200 ft
Symbols :   Thunderstorms  Fog  Heavy snow  Heavy precipitations  Wind > 20 kt
SIGMETs :     Misc.  Thunderstorms  Icing  Turbulence  Mountain Waves  Volcanic Ashes







- Airport Elevation : 204 ft
- IATA code : AGF
- Download approach charts


LFBA - Agen

CURRENT METAR :
  • 220600Z AUTO 27013KT 9999 FEW013 BKN020 OVC033 12/11 Q1025 TEMPO 4000 -DZ BECMG OVC012

EXPIRED METARs :
  • 220530Z AUTO 26009KT 220V280 6000 -RA BKN011 BKN018 BKN034 12/11 Q1025 TEMPO 4000 -DZ
  • 220500Z AUTO 26009KT 9999 -DZ SCT018 BKN025 OVC043 12/11 Q1025
  • 220430Z AUTO 25008KT 9999 FEW013 SCT024 BKN035 12/11 Q1025
  • 220400Z AUTO 27010KT 9999 FEW014 SCT020 BKN035 12/11 Q1025
  • 220330Z AUTO 27010KT 9999 BKN019 BKN026 OVC035 12/11 Q1025

TAF TAF LFBA
Valid from the 22 at 06:00 until the 22 at 15:00 UTC


220500Z 2206/2215 26012KT 9999 SCT015 OVC030
BECMG 2206/2208 OVC012
BECMG 2209/2211 25015G25KT
BECMG 2213/2215 OVC007
TEMPO 2206/2215 4000 -DZ
No reported NOTAMs for that airfield.
1 SIGMET reported for the Bordeaux FIR (LFBB) :
 
Severe turbulence
LFBB SIGMET 1 VALID 220400/220700 LFPW
LFBB BORDEAUX FIR/UIR SEV TURB FCST WI N4545 E00300 - N4215 E00230 - N4230 E00130 - N4545 E00215 - N4545 E00300 SFC/FL080 STNR NC=



MET'MAP, your aeronautical weather chart ! - Copyright ORBIFLY December 2007 - Disclaimer

ORBIFLY MET'MAP TEAM :

Programming & Development : Alexandra Zaïnal
Concept & Development : Baudouin d'Aumeries
Co-Development & Prog : Marc-Olivier Méhu
Technical & hardware support : Manuel Goepfert

Contact : metmap@orbifly.com




SOURCES & CREDITS :

   NOAA